sensor_id;sensor_type;location;lat;lon;timestamp;P1;durP1;ratioP1;P2;durP2;ratioP2
61640;SDS011;62201;49.966;8.342;2023-04-12T00:02:06;9.38;;;2.15;;
61640;SDS011;62201;49.966;8.342;2023-04-12T00:04:32;11.10;;;1.80;;
61640;SDS011;62201;49.966;8.342;2023-04-12T00:06:59;8.00;;;1.88;;
61640;SDS011;62201;49.966;8.342;2023-04-12T00:09:26;8.30;;;1.95;;
61640;SDS011;62201;49.966;8.342;2023-04-12T00:11:57;8.80;;;2.22;;
61640;SDS011;62201;49.966;8.342;2023-04-12T00:14:26;9.73;;;1.70;;
61640;SDS011;62201;49.966;8.342;2023-04-12T00:16:52;10.15;;;1.88;;
61640;SDS011;62201;49.966;8.342;2023-04-12T00:19:18;7.53;;;2.03;;
61640;SDS011;62201;49.966;8.342;2023-04-12T00:21:43;10.63;;;2.40;;
61640;SDS011;62201;49.966;8.342;2023-04-12T00:24:09;13.60;;;2.40;;
61640;SDS011;62201;49.966;8.342;2023-04-12T00:26:34;8.15;;;2.13;;
61640;SDS011;62201;49.966;8.342;2023-04-12T00:29:01;10.27;;;2.25;;
61640;SDS011;62201;49.966;8.342;2023-04-12T00:31:27;11.15;;;1.88;;
61640;SDS011;62201;49.966;8.342;2023-04-12T00:33:53;9.23;;;1.90;;
61640;SDS011;62201;49.966;8.342;2023-04-12T00:36:19;9.27;;;2.42;;
61640;SDS011;62201;49.966;8.342;2023-04-12T00:38:44;10.82;;;2.10;;
61640;SDS011;62201;49.966;8.342;2023-04-12T00:41:10;7.97;;;1.90;;
61640;SDS011;62201;49.966;8.342;2023-04-12T00:43:36;7.38;;;2.00;;
61640;SDS011;62201;49.966;8.342;2023-04-12T00:46:01;9.63;;;2.33;;
61640;SDS011;62201;49.966;8.342;2023-04-12T00:48:27;10.90;;;1.90;;
61640;SDS011;62201;49.966;8.342;2023-04-12T00:50:53;7.45;;;2.03;;
61640;SDS011;62201;49.966;8.342;2023-04-12T00:53:21;7.85;;;1.70;;
61640;SDS011;62201;49.966;8.342;2023-04-12T00:55:47;8.47;;;1.87;;
61640;SDS011;62201;49.966;8.342;2023-04-12T00:58:14;7.33;;;1.80;;
61640;SDS011;62201;49.966;8.342;2023-04-12T01:00:41;15.00;;;2.55;;
61640;SDS011;62201;49.966;8.342;2023-04-12T01:03:13;9.80;;;2.08;;
61640;SDS011;62201;49.966;8.342;2023-04-12T01:05:42;7.55;;;1.70;;
61640;SDS011;62201;49.966;8.342;2023-04-12T01:08:39;7.80;;;1.87;;
61640;SDS011;62201;49.966;8.342;2023-04-12T01:11:19;11.30;;;2.00;;
61640;SDS011;62201;49.966;8.342;2023-04-12T01:13:48;9.30;;;2.05;;
61640;SDS011;62201;49.966;8.342;2023-04-12T01:16:30;8.50;;;1.77;;
61640;SDS011;62201;49.966;8.342;2023-04-12T01:19:11;6.65;;;2.22;;
61640;SDS011;62201;49.966;8.342;2023-04-12T01:22:09;8.90;;;2.07;;
61640;SDS011;62201;49.966;8.342;2023-04-12T01:27:49;10.43;;;2.13;;
61640;SDS011;62201;49.966;8.342;2023-04-12T01:30:16;8.50;;;1.90;;
61640;SDS011;62201;49.966;8.342;2023-04-12T01:32:44;7.17;;;1.73;;
61640;SDS011;62201;49.966;8.342;2023-04-12T01:35:14;6.83;;;1.60;;
61640;SDS011;62201;49.966;8.342;2023-04-12T01:37:41;9.50;;;2.67;;
61640;SDS011;62201;49.966;8.342;2023-04-12T01:40:08;8.80;;;1.70;;
61640;SDS011;62201;49.966;8.342;2023-04-12T01:42:34;7.53;;;1.60;;
61640;SDS011;62201;49.966;8.342;2023-04-12T01:45:00;7.80;;;1.80;;
61640;SDS011;62201;49.966;8.342;2023-04-12T01:47:27;7.90;;;1.70;;
61640;SDS011;62201;49.966;8.342;2023-04-12T01:50:02;11.17;;;2.37;;
61640;SDS011;62201;49.966;8.342;2023-04-12T01:52:54;10.83;;;2.00;;
61640;SDS011;62201;49.966;8.342;2023-04-12T01:55:29;8.37;;;1.90;;
61640;SDS011;62201;49.966;8.342;2023-04-12T01:57:56;9.70;;;2.07;;
61640;SDS011;62201;49.966;8.342;2023-04-12T02:00:23;8.90;;;2.20;;
61640;SDS011;62201;49.966;8.342;2023-04-12T02:02:49;7.33;;;1.87;;
61640;SDS011;62201;49.966;8.342;2023-04-12T02:05:15;11.10;;;2.50;;
61640;SDS011;62201;49.966;8.342;2023-04-12T02:07:42;8.07;;;1.80;;
61640;SDS011;62201;49.966;8.342;2023-04-12T02:10:13;9.53;;;1.90;;
61640;SDS011;62201;49.966;8.342;2023-04-12T02:12:39;8.27;;;1.87;;
61640;SDS011;62201;49.966;8.342;2023-04-12T02:15:05;9.70;;;2.17;;
61640;SDS011;62201;49.966;8.342;2023-04-12T02:17:32;8.77;;;1.83;;
61640;SDS011;62201;49.966;8.342;2023-04-12T02:20:01;7.33;;;2.00;;
61640;SDS011;62201;49.966;8.342;2023-04-12T02:22:31;11.97;;;2.47;;
61640;SDS011;62201;49.966;8.342;2023-04-12T02:24:56;12.00;;;2.20;;
61640;SDS011;62201;49.966;8.342;2023-04-12T02:27:21;6.37;;;1.60;;
61640;SDS011;62201;49.966;8.342;2023-04-12T02:29:47;10.83;;;1.80;;
61640;SDS011;62201;49.966;8.342;2023-04-12T02:32:12;10.33;;;2.20;;
61640;SDS011;62201;49.966;8.342;2023-04-12T02:34:37;12.30;;;2.10;;
61640;SDS011;62201;49.966;8.342;2023-04-12T02:37:03;9.80;;;1.87;;
61640;SDS011;62201;49.966;8.342;2023-04-12T02:39:29;11.50;;;2.07;;
61640;SDS011;62201;49.966;8.342;2023-04-12T02:41:56;9.10;;;1.90;;
61640;SDS011;62201;49.966;8.342;2023-04-12T02:44:21;12.10;;;1.90;;
61640;SDS011;62201;49.966;8.342;2023-04-12T02:46:47;7.83;;;1.83;;
61640;SDS011;62201;49.966;8.342;2023-04-12T02:49:12;15.07;;;3.13;;
61640;SDS011;62201;49.966;8.342;2023-04-12T02:51:38;10.30;;;2.03;;
61640;SDS011;62201;49.966;8.342;2023-04-12T02:54:03;11.73;;;2.10;;
61640;SDS011;62201;49.966;8.342;2023-04-12T02:56:29;9.20;;;2.47;;
61640;SDS011;62201;49.966;8.342;2023-04-12T02:58:55;8.13;;;1.90;;
61640;SDS011;62201;49.966;8.342;2023-04-12T03:01:20;10.37;;;1.90;;
61640;SDS011;62201;49.966;8.342;2023-04-12T03:03:46;11.23;;;2.30;;
61640;SDS011;62201;49.966;8.342;2023-04-12T03:06:11;8.33;;;2.30;;
61640;SDS011;62201;49.966;8.342;2023-04-12T03:08:37;8.80;;;1.93;;
61640;SDS011;62201;49.966;8.342;2023-04-12T03:11:03;10.77;;;2.50;;
61640;SDS011;62201;49.966;8.342;2023-04-12T03:13:28;11.10;;;2.80;;
61640;SDS011;62201;49.966;8.342;2023-04-12T03:15:54;10.60;;;2.83;;
61640;SDS011;62201;49.966;8.342;2023-04-12T03:18:22;12.87;;;3.50;;
61640;SDS011;62201;49.966;8.342;2023-04-12T03:20:48;14.70;;;3.70;;
61640;SDS011;62201;49.966;8.342;2023-04-12T03:23:14;19.53;;;4.30;;
61640;SDS011;62201;49.966;8.342;2023-04-12T03:25:41;8.90;;;3.60;;
61640;SDS011;62201;49.966;8.342;2023-04-12T03:28:07;12.83;;;3.70;;
61640;SDS011;62201;49.966;8.342;2023-04-12T03:30:32;14.63;;;3.90;;
61640;SDS011;62201;49.966;8.342;2023-04-12T03:32:58;12.07;;;3.67;;
61640;SDS011;62201;49.966;8.342;2023-04-12T03:35:23;14.83;;;3.90;;
61640;SDS011;62201;49.966;8.342;2023-04-12T03:37:48;15.07;;;4.53;;
61640;SDS011;62201;49.966;8.342;2023-04-12T03:40:14;10.77;;;4.23;;
61640;SDS011;62201;49.966;8.342;2023-04-12T03:42:39;11.27;;;3.80;;
61640;SDS011;62201;49.966;8.342;2023-04-12T03:45:05;14.40;;;4.43;;
61640;SDS011;62201;49.966;8.342;2023-04-12T03:47:30;15.73;;;5.70;;
61640;SDS011;62201;49.966;8.342;2023-04-12T03:50:07;14.83;;;4.90;;
61640;SDS011;62201;49.966;8.342;2023-04-12T03:52:34;14.13;;;5.80;;
61640;SDS011;62201;49.966;8.342;2023-04-12T03:54:59;16.67;;;6.30;;
61640;SDS011;62201;49.966;8.342;2023-04-12T03:57:25;21.90;;;6.93;;
61640;SDS011;62201;49.966;8.342;2023-04-12T03:59:50;19.67;;;6.73;;
61640;SDS011;62201;49.966;8.342;2023-04-12T04:02:16;17.80;;;7.47;;
61640;SDS011;62201;49.966;8.342;2023-04-12T04:04:41;18.13;;;6.93;;
61640;SDS011;62201;49.966;8.342;2023-04-12T04:07:07;15.83;;;7.40;;
61640;SDS011;62201;49.966;8.342;2023-04-12T04:09:33;23.10;;;7.20;;
61640;SDS011;62201;49.966;8.342;2023-04-12T04:11:58;14.47;;;6.27;;
61640;SDS011;62201;49.966;8.342;2023-04-12T04:14:25;17.83;;;6.87;;
61640;SDS011;62201;49.966;8.342;2023-04-12T04:16:51;18.77;;;7.33;;
61640;SDS011;62201;49.966;8.342;2023-04-12T04:19:17;17.10;;;6.50;;
61640;SDS011;62201;49.966;8.342;2023-04-12T04:21:42;18.63;;;7.87;;
61640;SDS011;62201;49.966;8.342;2023-04-12T04:24:08;19.10;;;8.23;;
61640;SDS011;62201;49.966;8.342;2023-04-12T04:26:35;23.67;;;9.87;;
61640;SDS011;62201;49.966;8.342;2023-04-12T04:29:02;27.70;;;9.03;;
61640;SDS011;62201;49.966;8.342;2023-04-12T04:31:28;25.47;;;10.40;;
61640;SDS011;62201;49.966;8.342;2023-04-12T04:33:59;22.97;;;9.83;;
61640;SDS011;62201;49.966;8.342;2023-04-12T04:36:25;25.37;;;10.93;;
61640;SDS011;62201;49.966;8.342;2023-04-12T04:38:51;24.63;;;9.03;;
61640;SDS011;62201;49.966;8.342;2023-04-12T04:41:16;21.90;;;9.37;;
61640;SDS011;62201;49.966;8.342;2023-04-12T04:43:46;25.03;;;10.90;;
61640;SDS011;62201;49.966;8.342;2023-04-12T04:46:13;22.73;;;9.13;;
61640;SDS011;62201;49.966;8.342;2023-04-12T04:48:38;21.37;;;9.90;;
61640;SDS011;62201;49.966;8.342;2023-04-12T04:51:05;29.17;;;10.67;;
61640;SDS011;62201;49.966;8.342;2023-04-12T04:53:30;20.80;;;7.83;;
61640;SDS011;62201;49.966;8.342;2023-04-12T04:55:56;25.37;;;8.43;;
61640;SDS011;62201;49.966;8.342;2023-04-12T04:58:22;18.00;;;6.97;;
61640;SDS011;62201;49.966;8.342;2023-04-12T05:00:48;14.17;;;4.80;;
61640;SDS011;62201;49.966;8.342;2023-04-12T05:03:13;15.87;;;5.73;;
61640;SDS011;62201;49.966;8.342;2023-04-12T05:05:38;13.93;;;4.93;;
61640;SDS011;62201;49.966;8.342;2023-04-12T05:08:04;12.37;;;4.37;;
61640;SDS011;62201;49.966;8.342;2023-04-12T05:10:29;13.07;;;4.10;;
61640;SDS011;62201;49.966;8.342;2023-04-12T05:12:55;10.07;;;4.00;;
61640;SDS011;62201;49.966;8.342;2023-04-12T05:15:20;8.17;;;3.40;;
61640;SDS011;62201;49.966;8.342;2023-04-12T05:17:46;8.37;;;3.30;;
61640;SDS011;62201;49.966;8.342;2023-04-12T05:20:11;13.93;;;5.00;;
61640;SDS011;62201;49.966;8.342;2023-04-12T05:22:37;13.13;;;3.13;;
61640;SDS011;62201;49.966;8.342;2023-04-12T05:25:02;8.13;;;3.33;;
61640;SDS011;62201;49.966;8.342;2023-04-12T05:27:28;10.63;;;3.40;;
61640;SDS011;62201;49.966;8.342;2023-04-12T05:29:57;10.50;;;2.80;;
61640;SDS011;62201;49.966;8.342;2023-04-12T05:32:23;8.87;;;2.73;;
61640;SDS011;62201;49.966;8.342;2023-04-12T05:34:49;8.37;;;2.80;;
61640;SDS011;62201;49.966;8.342;2023-04-12T05:37:14;12.73;;;2.50;;
61640;SDS011;62201;49.966;8.342;2023-04-12T05:39:40;16.20;;;3.37;;
61640;SDS011;62201;49.966;8.342;2023-04-12T05:42:08;6.90;;;2.70;;
61640;SDS011;62201;49.966;8.342;2023-04-12T05:45:08;5.57;;;2.15;;
61640;SDS011;62201;49.966;8.342;2023-04-12T05:47:35;8.50;;;2.80;;
61640;SDS011;62201;49.966;8.342;2023-04-12T05:50:01;6.63;;;2.80;;
61640;SDS011;62201;49.966;8.342;2023-04-12T05:52:26;8.53;;;2.80;;
61640;SDS011;62201;49.966;8.342;2023-04-12T05:54:52;8.97;;;2.57;;
61640;SDS011;62201;49.966;8.342;2023-04-12T05:57:17;9.63;;;2.90;;
61640;SDS011;62201;49.966;8.342;2023-04-12T05:59:42;7.47;;;2.40;;
61640;SDS011;62201;49.966;8.342;2023-04-12T06:02:08;8.43;;;2.67;;
61640;SDS011;62201;49.966;8.342;2023-04-12T06:04:34;6.70;;;2.87;;
61640;SDS011;62201;49.966;8.342;2023-04-12T06:07:02;6.53;;;2.63;;
61640;SDS011;62201;49.966;8.342;2023-04-12T06:09:27;8.53;;;2.50;;
61640;SDS011;62201;49.966;8.342;2023-04-12T06:11:52;9.00;;;3.30;;
61640;SDS011;62201;49.966;8.342;2023-04-12T06:14:18;6.47;;;2.50;;
61640;SDS011;62201;49.966;8.342;2023-04-12T06:16:43;9.03;;;2.43;;
61640;SDS011;62201;49.966;8.342;2023-04-12T06:19:09;6.70;;;2.17;;
61640;SDS011;62201;49.966;8.342;2023-04-12T06:21:35;5.60;;;2.40;;
61640;SDS011;62201;49.966;8.342;2023-04-12T06:24:00;4.53;;;2.00;;
61640;SDS011;62201;49.966;8.342;2023-04-12T06:26:25;5.67;;;2.30;;
61640;SDS011;62201;49.966;8.342;2023-04-12T06:28:51;6.53;;;1.97;;
61640;SDS011;62201;49.966;8.342;2023-04-12T06:31:16;6.33;;;2.10;;
61640;SDS011;62201;49.966;8.342;2023-04-12T06:33:41;5.17;;;2.03;;
61640;SDS011;62201;49.966;8.342;2023-04-12T06:36:07;9.67;;;2.13;;
61640;SDS011;62201;49.966;8.342;2023-04-12T06:38:33;5.33;;;2.30;;
61640;SDS011;62201;49.966;8.342;2023-04-12T06:40:58;4.07;;;1.80;;
61640;SDS011;62201;49.966;8.342;2023-04-12T06:43:24;8.57;;;2.70;;
61640;SDS011;62201;49.966;8.342;2023-04-12T06:45:49;7.13;;;2.80;;
61640;SDS011;62201;49.966;8.342;2023-04-12T06:48:15;6.20;;;2.47;;
61640;SDS011;62201;49.966;8.342;2023-04-12T06:50:40;9.03;;;2.53;;
61640;SDS011;62201;49.966;8.342;2023-04-12T06:53:05;6.07;;;2.17;;
61640;SDS011;62201;49.966;8.342;2023-04-12T06:55:31;5.87;;;2.20;;
61640;SDS011;62201;49.966;8.342;2023-04-12T06:57:57;5.03;;;2.23;;
61640;SDS011;62201;49.966;8.342;2023-04-12T07:00:22;5.43;;;2.30;;
61640;SDS011;62201;49.966;8.342;2023-04-12T07:02:48;5.77;;;2.27;;
61640;SDS011;62201;49.966;8.342;2023-04-12T07:05:13;5.30;;;2.33;;
61640;SDS011;62201;49.966;8.342;2023-04-12T07:07:39;8.03;;;2.67;;
61640;SDS011;62201;49.966;8.342;2023-04-12T07:10:04;9.03;;;2.83;;
61640;SDS011;62201;49.966;8.342;2023-04-12T07:12:30;4.67;;;1.90;;
61640;SDS011;62201;49.966;8.342;2023-04-12T07:14:56;5.93;;;2.00;;
61640;SDS011;62201;49.966;8.342;2023-04-12T07:17:22;5.20;;;2.53;;
61640;SDS011;62201;49.966;8.342;2023-04-12T07:19:50;5.93;;;1.97;;
61640;SDS011;62201;49.966;8.342;2023-04-12T07:22:17;5.67;;;1.90;;
61640;SDS011;62201;49.966;8.342;2023-04-12T07:24:42;7.13;;;2.17;;
61640;SDS011;62201;49.966;8.342;2023-04-12T07:27:08;4.83;;;2.20;;
61640;SDS011;62201;49.966;8.342;2023-04-12T07:29:35;5.37;;;2.53;;
61640;SDS011;62201;49.966;8.342;2023-04-12T07:32:01;10.80;;;3.50;;
61640;SDS011;62201;49.966;8.342;2023-04-12T07:34:27;6.22;;;2.45;;
61640;SDS011;62201;49.966;8.342;2023-04-12T07:36:52;8.17;;;2.70;;
61640;SDS011;62201;49.966;8.342;2023-04-12T07:39:18;7.40;;;2.50;;
61640;SDS011;62201;49.966;8.342;2023-04-12T07:41:43;6.07;;;2.27;;
61640;SDS011;62201;49.966;8.342;2023-04-12T07:44:10;6.13;;;2.40;;
61640;SDS011;62201;49.966;8.342;2023-04-12T07:46:37;6.67;;;2.63;;
61640;SDS011;62201;49.966;8.342;2023-04-12T07:49:02;6.20;;;2.70;;
61640;SDS011;62201;49.966;8.342;2023-04-12T07:51:28;8.27;;;3.00;;
61640;SDS011;62201;49.966;8.342;2023-04-12T07:53:54;5.67;;;2.63;;
61640;SDS011;62201;49.966;8.342;2023-04-12T07:56:19;8.60;;;2.80;;
61640;SDS011;62201;49.966;8.342;2023-04-12T07:58:45;5.23;;;2.50;;
61640;SDS011;62201;49.966;8.342;2023-04-12T08:01:10;6.20;;;2.60;;
61640;SDS011;62201;49.966;8.342;2023-04-12T08:03:37;8.55;;;3.17;;
61640;SDS011;62201;49.966;8.342;2023-04-12T08:06:02;7.87;;;2.97;;
61640;SDS011;62201;49.966;8.342;2023-04-12T08:08:28;4.47;;;2.63;;
61640;SDS011;62201;49.966;8.342;2023-04-12T08:10:53;6.27;;;2.77;;
61640;SDS011;62201;49.966;8.342;2023-04-12T08:13:19;7.07;;;3.10;;
61640;SDS011;62201;49.966;8.342;2023-04-12T08:15:45;8.93;;;3.20;;
61640;SDS011;62201;49.966;8.342;2023-04-12T08:18:11;6.10;;;2.35;;
61640;SDS011;62201;49.966;8.342;2023-04-12T08:20:37;10.20;;;3.53;;
61640;SDS011;62201;49.966;8.342;2023-04-12T08:23:04;8.55;;;2.95;;
61640;SDS011;62201;49.966;8.342;2023-04-12T08:25:30;10.60;;;4.13;;
61640;SDS011;62201;49.966;8.342;2023-04-12T08:27:56;8.77;;;3.75;;
61640;SDS011;62201;49.966;8.342;2023-04-12T08:30:21;8.98;;;4.13;;
61640;SDS011;62201;49.966;8.342;2023-04-12T08:32:50;6.75;;;3.67;;
61640;SDS011;62201;49.966;8.342;2023-04-12T08:35:16;6.95;;;3.67;;
61640;SDS011;62201;49.966;8.342;2023-04-12T08:37:42;7.63;;;3.83;;
61640;SDS011;62201;49.966;8.342;2023-04-12T08:40:07;11.30;;;4.47;;
61640;SDS011;62201;49.966;8.342;2023-04-12T08:42:34;12.05;;;3.80;;
61640;SDS011;62201;49.966;8.342;2023-04-12T08:45:04;10.60;;;3.67;;
61640;SDS011;62201;49.966;8.342;2023-04-12T08:47:31;10.27;;;4.05;;
61640;SDS011;62201;49.966;8.342;2023-04-12T08:49:59;10.25;;;3.45;;
61640;SDS011;62201;49.966;8.342;2023-04-12T08:52:26;8.15;;;3.40;;
61640;SDS011;62201;49.966;8.342;2023-04-12T08:54:51;6.78;;;3.63;;
61640;SDS011;62201;49.966;8.342;2023-04-12T08:57:17;12.73;;;3.35;;
61640;SDS011;62201;49.966;8.342;2023-04-12T08:59:44;8.65;;;3.20;;
61640;SDS011;62201;49.966;8.342;2023-04-12T09:02:12;8.18;;;3.90;;
61640;SDS011;62201;49.966;8.342;2023-04-12T09:04:45;8.00;;;4.00;;
61640;SDS011;62201;49.966;8.342;2023-04-12T09:07:14;10.13;;;5.45;;
61640;SDS011;62201;49.966;8.342;2023-04-12T09:09:41;11.32;;;3.88;;
61640;SDS011;62201;49.966;8.342;2023-04-12T09:12:10;11.98;;;4.43;;
61640;SDS011;62201;49.966;8.342;2023-04-12T09:14:37;6.13;;;3.25;;
61640;SDS011;62201;49.966;8.342;2023-04-12T09:17:04;12.75;;;3.13;;
61640;SDS011;62201;49.966;8.342;2023-04-12T09:19:44;8.32;;;4.00;;
61640;SDS011;62201;49.966;8.342;2023-04-12T09:22:10;9.95;;;4.82;;
61640;SDS011;62201;49.966;8.342;2023-04-12T09:24:44;7.55;;;3.95;;
61640;SDS011;62201;49.966;8.342;2023-04-12T09:27:10;10.15;;;4.70;;
61640;SDS011;62201;49.966;8.342;2023-04-12T09:29:36;9.00;;;4.82;;
61640;SDS011;62201;49.966;8.342;2023-04-12T09:32:02;5.38;;;3.65;;
61640;SDS011;62201;49.966;8.342;2023-04-12T09:34:30;8.63;;;4.30;;
61640;SDS011;62201;49.966;8.342;2023-04-12T09:36:56;7.05;;;3.80;;
61640;SDS011;62201;49.966;8.342;2023-04-12T09:39:34;7.50;;;3.88;;
61640;SDS011;62201;49.966;8.342;2023-04-12T09:42:06;10.00;;;5.05;;
61640;SDS011;62201;49.966;8.342;2023-04-12T09:44:33;9.40;;;4.40;;
61640;SDS011;62201;49.966;8.342;2023-04-12T09:46:59;11.05;;;5.28;;
61640;SDS011;62201;49.966;8.342;2023-04-12T09:49:42;10.18;;;4.28;;
61640;SDS011;62201;49.966;8.342;2023-04-12T09:52:12;11.00;;;5.10;;
61640;SDS011;62201;49.966;8.342;2023-04-12T09:54:41;11.38;;;4.38;;
61640;SDS011;62201;49.966;8.342;2023-04-12T09:57:12;7.70;;;4.50;;
61640;SDS011;62201;49.966;8.342;2023-04-12T09:59:41;13.65;;;4.28;;
61640;SDS011;62201;49.966;8.342;2023-04-12T10:02:15;14.05;;;4.95;;
61640;SDS011;62201;49.966;8.342;2023-04-12T10:04:50;11.10;;;4.68;;
61640;SDS011;62201;49.966;8.342;2023-04-12T10:07:16;8.95;;;4.20;;
61640;SDS011;62201;49.966;8.342;2023-04-12T10:09:42;12.27;;;5.63;;
61640;SDS011;62201;49.966;8.342;2023-04-12T10:12:08;13.48;;;5.47;;
61640;SDS011;62201;49.966;8.342;2023-04-12T10:14:33;9.50;;;5.05;;
61640;SDS011;62201;49.966;8.342;2023-04-12T10:17:00;7.60;;;4.47;;
61640;SDS011;62201;49.966;8.342;2023-04-12T10:19:38;9.13;;;3.75;;
61640;SDS011;62201;49.966;8.342;2023-04-12T10:22:04;12.75;;;5.55;;
61640;SDS011;62201;49.966;8.342;2023-04-12T10:24:30;10.95;;;5.30;;
61640;SDS011;62201;49.966;8.342;2023-04-12T10:26:56;9.07;;;5.63;;
61640;SDS011;62201;49.966;8.342;2023-04-12T10:29:27;9.48;;;4.22;;
61640;SDS011;62201;49.966;8.342;2023-04-12T10:31:58;12.68;;;5.63;;
61640;SDS011;62201;49.966;8.342;2023-04-12T10:34:52;9.85;;;4.63;;
61640;SDS011;62201;49.966;8.342;2023-04-12T10:37:37;13.40;;;5.25;;
61640;SDS011;62201;49.966;8.342;2023-04-12T10:40:27;12.15;;;5.00;;
61640;SDS011;62201;49.966;8.342;2023-04-12T10:45:46;10.52;;;4.80;;
61640;SDS011;62201;49.966;8.342;2023-04-12T10:48:29;12.75;;;4.70;;
61640;SDS011;62201;49.966;8.342;2023-04-12T10:51:10;11.13;;;4.95;;
61640;SDS011;62201;49.966;8.342;2023-04-12T10:53:38;10.07;;;4.32;;
61640;SDS011;62201;49.966;8.342;2023-04-12T10:56:33;10.50;;;4.32;;
61640;SDS011;62201;49.966;8.342;2023-04-12T10:59:13;10.90;;;4.40;;
61640;SDS011;62201;49.966;8.342;2023-04-12T11:01:40;11.02;;;4.15;;
61640;SDS011;62201;49.966;8.342;2023-04-12T11:04:26;8.35;;;4.03;;
61640;SDS011;62201;49.966;8.342;2023-04-12T11:09:59;7.22;;;3.58;;
61640;SDS011;62201;49.966;8.342;2023-04-12T11:14:34;7.25;;;3.55;;
61640;SDS011;62201;49.966;8.342;2023-04-12T11:19:30;8.00;;;3.55;;
61640;SDS011;62201;49.966;8.342;2023-04-12T11:21:56;5.38;;;3.65;;
61640;SDS011;62201;49.966;8.342;2023-04-12T11:24:24;8.23;;;3.67;;
61640;SDS011;62201;49.966;8.342;2023-04-12T11:26:52;5.55;;;3.22;;
61640;SDS011;62201;49.966;8.342;2023-04-12T11:29:27;7.50;;;3.70;;
61640;SDS011;62201;49.966;8.342;2023-04-12T11:31:53;9.40;;;3.33;;
61640;SDS011;62201;49.966;8.342;2023-04-12T11:34:21;9.13;;;3.90;;
61640;SDS011;62201;49.966;8.342;2023-04-12T11:36:48;7.53;;;4.25;;
61640;SDS011;62201;49.966;8.342;2023-04-12T11:39:17;9.43;;;3.55;;
61640;SDS011;62201;49.966;8.342;2023-04-12T11:41:43;9.27;;;4.32;;
61640;SDS011;62201;49.966;8.342;2023-04-12T11:44:13;11.48;;;4.75;;
61640;SDS011;62201;49.966;8.342;2023-04-12T11:46:42;12.65;;;5.45;;
61640;SDS011;62201;49.966;8.342;2023-04-12T11:49:07;8.25;;;3.80;;
61640;SDS011;62201;49.966;8.342;2023-04-12T11:51:33;8.30;;;3.70;;
61640;SDS011;62201;49.966;8.342;2023-04-12T11:53:59;8.07;;;3.78;;
61640;SDS011;62201;49.966;8.342;2023-04-12T11:56:25;9.30;;;3.97;;
61640;SDS011;62201;49.966;8.342;2023-04-12T11:58:51;8.93;;;3.80;;
61640;SDS011;62201;49.966;8.342;2023-04-12T12:01:17;8.50;;;4.30;;
61640;SDS011;62201;49.966;8.342;2023-04-12T12:03:44;7.32;;;3.78;;
61640;SDS011;62201;49.966;8.342;2023-04-12T12:06:10;6.28;;;3.40;;
61640;SDS011;62201;49.966;8.342;2023-04-12T12:08:36;7.25;;;3.47;;
61640;SDS011;62201;49.966;8.342;2023-04-12T12:11:03;7.10;;;3.15;;
61640;SDS011;62201;49.966;8.342;2023-04-12T12:16:13;5.07;;;3.03;;
61640;SDS011;62201;49.966;8.342;2023-04-12T12:18:39;6.07;;;3.03;;
61640;SDS011;62201;49.966;8.342;2023-04-12T12:21:08;6.47;;;3.38;;
61640;SDS011;62201;49.966;8.342;2023-04-12T12:23:35;5.90;;;3.13;;
61640;SDS011;62201;49.966;8.342;2023-04-12T12:26:01;8.27;;;3.67;;
61640;SDS011;62201;49.966;8.342;2023-04-12T12:28:28;5.07;;;3.20;;
61640;SDS011;62201;49.966;8.342;2023-04-12T12:30:56;9.55;;;3.88;;
61640;SDS011;62201;49.966;8.342;2023-04-12T12:33:22;7.45;;;3.30;;
61640;SDS011;62201;49.966;8.342;2023-04-12T12:35:57;9.18;;;3.65;;
61640;SDS011;62201;49.966;8.342;2023-04-12T12:38:23;9.38;;;3.63;;
61640;SDS011;62201;49.966;8.342;2023-04-12T12:40:48;9.43;;;3.53;;
61640;SDS011;62201;49.966;8.342;2023-04-12T12:43:17;10.93;;;4.35;;
61640;SDS011;62201;49.966;8.342;2023-04-12T12:45:44;10.68;;;4.72;;
61640;SDS011;62201;49.966;8.342;2023-04-12T12:48:10;6.10;;;2.83;;
61640;SDS011;62201;49.966;8.342;2023-04-12T12:50:37;5.30;;;2.17;;
61640;SDS011;62201;49.966;8.342;2023-04-12T12:53:03;3.63;;;1.80;;
61640;SDS011;62201;49.966;8.342;2023-04-12T12:55:32;3.60;;;1.38;;
61640;SDS011;62201;49.966;8.342;2023-04-12T12:57:58;4.13;;;1.67;;
61640;SDS011;62201;49.966;8.342;2023-04-12T13:00:25;3.67;;;1.70;;
61640;SDS011;62201;49.966;8.342;2023-04-12T13:02:52;4.10;;;1.65;;
61640;SDS011;62201;49.966;8.342;2023-04-12T13:05:18;4.05;;;1.67;;
61640;SDS011;62201;49.966;8.342;2023-04-12T13:07:45;5.05;;;1.48;;
61640;SDS011;62201;49.966;8.342;2023-04-12T13:10:11;4.72;;;1.60;;
61640;SDS011;62201;49.966;8.342;2023-04-12T13:12:36;3.35;;;1.60;;
61640;SDS011;62201;49.966;8.342;2023-04-12T13:15:02;4.60;;;2.30;;
61640;SDS011;62201;49.966;8.342;2023-04-12T13:17:28;6.28;;;2.30;;
61640;SDS011;62201;49.966;8.342;2023-04-12T13:19:55;5.00;;;2.60;;
61640;SDS011;62201;49.966;8.342;2023-04-12T13:22:20;5.80;;;2.38;;
61640;SDS011;62201;49.966;8.342;2023-04-12T13:24:46;6.28;;;2.33;;
61640;SDS011;62201;49.966;8.342;2023-04-12T13:27:12;5.70;;;2.10;;
61640;SDS011;62201;49.966;8.342;2023-04-12T13:29:38;5.45;;;2.50;;
61640;SDS011;62201;49.966;8.342;2023-04-12T13:32:04;5.30;;;1.92;;
61640;SDS011;62201;49.966;8.342;2023-04-12T13:34:30;3.53;;;1.40;;
61640;SDS011;62201;49.966;8.342;2023-04-12T13:36:56;2.30;;;0.85;;
61640;SDS011;62201;49.966;8.342;2023-04-12T13:39:22;2.30;;;0.60;;
61640;SDS011;62201;49.966;8.342;2023-04-12T13:41:47;2.85;;;0.70;;
61640;SDS011;62201;49.966;8.342;2023-04-12T13:44:16;0.88;;;0.43;;
61640;SDS011;62201;49.966;8.342;2023-04-12T13:46:42;0.75;;;0.38;;
61640;SDS011;62201;49.966;8.342;2023-04-12T13:49:07;0.57;;;0.20;;
61640;SDS011;62201;49.966;8.342;2023-04-12T13:51:33;1.52;;;0.50;;
61640;SDS011;62201;49.966;8.342;2023-04-12T13:53:59;2.53;;;0.25;;
61640;SDS011;62201;49.966;8.342;2023-04-12T13:56:24;1.20;;;0.32;;
61640;SDS011;62201;49.966;8.342;2023-04-12T13:58:50;1.42;;;0.40;;
61640;SDS011;62201;49.966;8.342;2023-04-12T14:01:16;0.70;;;0.30;;
61640;SDS011;62201;49.966;8.342;2023-04-12T14:03:41;3.65;;;0.65;;
61640;SDS011;62201;49.966;8.342;2023-04-12T14:06:07;1.27;;;0.40;;
61640;SDS011;62201;49.966;8.342;2023-04-12T14:08:33;2.38;;;0.47;;
61640;SDS011;62201;49.966;8.342;2023-04-12T14:11:00;2.10;;;0.65;;
61640;SDS011;62201;49.966;8.342;2023-04-12T14:13:26;1.58;;;0.60;;
61640;SDS011;62201;49.966;8.342;2023-04-12T14:15:52;2.28;;;0.50;;
61640;SDS011;62201;49.966;8.342;2023-04-12T14:18:18;1.48;;;0.38;;
61640;SDS011;62201;49.966;8.342;2023-04-12T14:20:46;1.05;;;0.30;;
61640;SDS011;62201;49.966;8.342;2023-04-12T14:23:16;5.35;;;0.40;;
61640;SDS011;62201;49.966;8.342;2023-04-12T14:25:49;1.27;;;0.32;;
61640;SDS011;62201;49.966;8.342;2023-04-12T14:28:14;1.38;;;0.40;;
61640;SDS011;62201;49.966;8.342;2023-04-12T14:30:40;1.13;;;0.43;;
61640;SDS011;62201;49.966;8.342;2023-04-12T14:33:06;0.45;;;0.20;;
61640;SDS011;62201;49.966;8.342;2023-04-12T14:35:32;1.45;;;0.50;;
61640;SDS011;62201;49.966;8.342;2023-04-12T14:37:57;1.20;;;0.30;;
61640;SDS011;62201;49.966;8.342;2023-04-12T14:40:23;1.73;;;0.40;;
61640;SDS011;62201;49.966;8.342;2023-04-12T14:42:48;0.55;;;0.30;;
61640;SDS011;62201;49.966;8.342;2023-04-12T14:45:13;2.13;;;0.30;;
61640;SDS011;62201;49.966;8.342;2023-04-12T14:47:39;0.75;;;0.20;;
61640;SDS011;62201;49.966;8.342;2023-04-12T14:50:05;1.60;;;0.30;;
61640;SDS011;62201;49.966;8.342;2023-04-12T14:52:31;0.45;;;0.20;;
61640;SDS011;62201;49.966;8.342;2023-04-12T14:54:56;0.63;;;0.25;;
61640;SDS011;62201;49.966;8.342;2023-04-12T14:57:22;1.00;;;0.30;;
61640;SDS011;62201;49.966;8.342;2023-04-12T14:59:47;0.70;;;0.30;;
61640;SDS011;62201;49.966;8.342;2023-04-12T15:02:13;0.95;;;0.30;;